sensor_id;sensor_type;location;lat;lon;timestamp;pressure;altitude;pressure_sealevel;temperature;humidity
27623;BME280;15041;45.334;5.622;2022-07-10T00:00:26;99695.25;;;23.02;64.16
27623;BME280;15041;45.334;5.622;2022-07-10T00:02:53;99694.06;;;23.20;62.24
27623;BME280;15041;45.334;5.622;2022-07-10T00:05:20;99687.91;;;23.14;62.61
27623;BME280;15041;45.334;5.622;2022-07-10T00:07:47;99696.91;;;23.32;61.23
27623;BME280;15041;45.334;5.622;2022-07-10T00:10:15;99692.06;;;23.29;60.97
27623;BME280;15041;45.334;5.622;2022-07-10T00:12:43;99683.63;;;23.34;61.22
27623;BME280;15041;45.334;5.622;2022-07-10T00:15:11;99674.28;;;23.18;61.38
27623;BME280;15041;45.334;5.622;2022-07-10T00:17:38;99684.16;;;23.27;60.57
27623;BME280;15041;45.334;5.622;2022-07-10T00:20:06;99681.03;;;23.29;61.03
27623;BME280;15041;45.334;5.622;2022-07-10T00:22:33;99671.03;;;23.16;62.63
27623;BME280;15041;45.334;5.622;2022-07-10T00:25:01;99675.81;;;22.61;65.90
27623;BME280;15041;45.334;5.622;2022-07-10T00:27:28;99677.94;;;22.55;66.02
27623;BME280;15041;45.334;5.622;2022-07-10T00:29:56;99673.59;;;22.29;68.15
27623;BME280;15041;45.334;5.622;2022-07-10T00:32:23;99672.28;;;22.35;67.56
27623;BME280;15041;45.334;5.622;2022-07-10T00:34:50;99673.59;;;22.46;67.14
27623;BME280;15041;45.334;5.622;2022-07-10T00:37:17;99663.41;;;22.12;68.96
27623;BME280;15041;45.334;5.622;2022-07-10T00:39:46;99665.38;;;22.03;70.12
27623;BME280;15041;45.334;5.622;2022-07-10T00:42:14;99662.97;;;21.85;71.36
27623;BME280;15041;45.334;5.622;2022-07-10T00:44:41;99659.06;;;21.69;71.96
27623;BME280;15041;45.334;5.622;2022-07-10T00:47:11;99658.25;;;22.19;67.83
27623;BME280;15041;45.334;5.622;2022-07-10T00:49:39;99651.28;;;22.47;66.13
27623;BME280;15041;45.334;5.622;2022-07-10T00:52:08;99650.44;;;22.38;65.76
27623;BME280;15041;45.334;5.622;2022-07-10T00:54:37;99642.69;;;22.49;64.87
27623;BME280;15041;45.334;5.622;2022-07-10T00:57:05;99646.03;;;22.63;64.16
27623;BME280;15041;45.334;5.622;2022-07-10T00:59:33;99642.78;;;22.61;64.69
27623;BME280;15041;45.334;5.622;2022-07-10T01:02:01;99643.09;;;21.96;69.53
27623;BME280;15041;45.334;5.622;2022-07-10T01:04:29;99634.75;;;22.39;66.21
27623;BME280;15041;45.334;5.622;2022-07-10T01:06:56;99634.88;;;22.42;66.92
27623;BME280;15041;45.334;5.622;2022-07-10T01:09:23;99638.59;;;22.55;65.53
27623;BME280;15041;45.334;5.622;2022-07-10T01:11:50;99641.56;;;22.24;67.79
27623;BME280;15041;45.334;5.622;2022-07-10T01:14:16;99646.88;;;22.29;67.79
27623;BME280;15041;45.334;5.622;2022-07-10T01:16:43;99638.19;;;22.19;67.70
27623;BME280;15041;45.334;5.622;2022-07-10T01:19:10;99640.25;;;22.39;66.29
27623;BME280;15041;45.334;5.622;2022-07-10T01:21:38;99630.19;;;22.43;65.01
27623;BME280;15041;45.334;5.622;2022-07-10T01:24:06;99632.16;;;22.34;65.68
27623;BME280;15041;45.334;5.622;2022-07-10T01:26:34;99635.38;;;22.53;64.10
27623;BME280;15041;45.334;5.622;2022-07-10T01:29:04;99641.22;;;22.51;63.31
27623;BME280;15041;45.334;5.622;2022-07-10T01:31:32;99636.31;;;22.57;62.54
27623;BME280;15041;45.334;5.622;2022-07-10T01:34:00;99634.88;;;22.59;62.02
27623;BME280;15041;45.334;5.622;2022-07-10T01:36:29;99646.09;;;22.46;62.39
27623;BME280;15041;45.334;5.622;2022-07-10T01:38:58;99641.84;;;22.40;62.59
27623;BME280;15041;45.334;5.622;2022-07-10T01:41:25;99630.78;;;21.68;68.73
27623;BME280;15041;45.334;5.622;2022-07-10T01:43:53;99639.56;;;21.06;74.25
27623;BME280;15041;45.334;5.622;2022-07-10T01:46:20;99641.56;;;21.31;73.50
27623;BME280;15041;45.334;5.622;2022-07-10T01:48:48;99639.97;;;21.64;70.53
27623;BME280;15041;45.334;5.622;2022-07-10T01:51:15;99627.41;;;21.80;68.13
27623;BME280;15041;45.334;5.622;2022-07-10T01:53:41;99631.91;;;21.93;66.57
27623;BME280;15041;45.334;5.622;2022-07-10T01:56:11;99637.72;;;22.00;65.65
27623;BME280;15041;45.334;5.622;2022-07-10T01:58:39;99637.72;;;22.00;64.90
27623;BME280;15041;45.334;5.622;2022-07-10T02:01:08;99647.75;;;22.13;65.01
27623;BME280;15041;45.334;5.622;2022-07-10T02:03:35;99633.72;;;21.80;67.23
27623;BME280;15041;45.334;5.622;2022-07-10T02:06:19;99631.25;;;21.62;68.88
27623;BME280;15041;45.334;5.622;2022-07-10T02:08:46;99627.22;;;21.85;66.98
27623;BME280;15041;45.334;5.622;2022-07-10T02:11:14;99629.81;;;21.98;66.91
27623;BME280;15041;45.334;5.622;2022-07-10T02:13:41;99631.09;;;21.58;68.78
27623;BME280;15041;45.334;5.622;2022-07-10T02:16:08;99629.00;;;21.81;66.69
27623;BME280;15041;45.334;5.622;2022-07-10T02:18:36;99630.31;;;21.75;66.32
27623;BME280;15041;45.334;5.622;2022-07-10T02:21:04;99636.63;;;20.94;72.96
27623;BME280;15041;45.334;5.622;2022-07-10T02:23:32;99637.22;;;21.38;70.60
27623;BME280;15041;45.334;5.622;2022-07-10T02:25:59;99635.63;;;21.54;68.81
27623;BME280;15041;45.334;5.622;2022-07-10T02:28:27;99641.28;;;21.58;67.78
27623;BME280;15041;45.334;5.622;2022-07-10T02:30:54;99640.84;;;21.00;73.57
27623;BME280;15041;45.334;5.622;2022-07-10T02:33:21;99642.22;;;21.28;71.86
27623;BME280;15041;45.334;5.622;2022-07-10T02:35:47;99635.56;;;21.20;71.41
27623;BME280;15041;45.334;5.622;2022-07-10T02:38:14;99639.22;;;20.99;73.27
27623;BME280;15041;45.334;5.622;2022-07-10T02:40:41;99637.66;;;21.15;71.43
27623;BME280;15041;45.334;5.622;2022-07-10T02:43:09;99635.91;;;21.44;68.85
27623;BME280;15041;45.334;5.622;2022-07-10T02:45:37;99639.00;;;21.60;66.66
27623;BME280;15041;45.334;5.622;2022-07-10T02:48:04;99644.97;;;20.89;72.98
27623;BME280;15041;45.334;5.622;2022-07-10T02:50:31;99649.91;;;21.09;71.43
27623;BME280;15041;45.334;5.622;2022-07-10T02:52:58;99650.56;;;21.14;70.90
27623;BME280;15041;45.334;5.622;2022-07-10T02:55:25;99647.88;;;21.40;68.57
27623;BME280;15041;45.334;5.622;2022-07-10T02:57:52;99642.56;;;21.52;67.93
27623;BME280;15041;45.334;5.622;2022-07-10T03:00:18;99649.34;;;21.46;66.68
27623;BME280;15041;45.334;5.622;2022-07-10T03:02:46;99644.50;;;21.60;64.74
27623;BME280;15041;45.334;5.622;2022-07-10T03:05:13;99649.19;;;21.42;64.73
27623;BME280;15041;45.334;5.622;2022-07-10T03:07:40;99645.31;;;21.52;64.51
27623;BME280;15041;45.334;5.622;2022-07-10T03:10:08;99648.72;;;21.66;64.10
27623;BME280;15041;45.334;5.622;2022-07-10T03:12:34;99638.84;;;21.65;64.37
27623;BME280;15041;45.334;5.622;2022-07-10T03:15:02;99637.09;;;21.77;63.40
27623;BME280;15041;45.334;5.622;2022-07-10T03:17:29;99639.16;;;21.46;64.97
27623;BME280;15041;45.334;5.622;2022-07-10T03:19:57;99628.97;;;21.47;64.37
27623;BME280;15041;45.334;5.622;2022-07-10T03:22:24;99633.66;;;21.38;64.74
27623;BME280;15041;45.334;5.622;2022-07-10T03:24:50;99637.34;;;21.25;66.60
27623;BME280;15041;45.334;5.622;2022-07-10T03:27:17;99633.81;;;21.33;65.81
27623;BME280;15041;45.334;5.622;2022-07-10T03:29:44;99635.56;;;21.20;66.63
27623;BME280;15041;45.334;5.622;2022-07-10T03:32:11;99633.31;;;21.22;66.43
27623;BME280;15041;45.334;5.622;2022-07-10T03:34:38;99641.88;;;21.38;64.95
27623;BME280;15041;45.334;5.622;2022-07-10T03:37:06;99642.22;;;21.45;64.51
27623;BME280;15041;45.334;5.622;2022-07-10T03:39:33;99637.06;;;21.52;63.99
27623;BME280;15041;45.334;5.622;2022-07-10T03:42:00;99629.63;;;21.44;64.06
27623;BME280;15041;45.334;5.622;2022-07-10T03:44:27;99633.66;;;21.55;63.72
27623;BME280;15041;45.334;5.622;2022-07-10T03:46:54;99634.00;;;21.45;63.68
27623;BME280;15041;45.334;5.622;2022-07-10T03:49:20;99628.94;;;21.30;64.63
27623;BME280;15041;45.334;5.622;2022-07-10T03:51:47;99625.06;;;21.14;65.20
27623;BME280;15041;45.334;5.622;2022-07-10T03:54:15;99637.47;;;21.03;65.80
27623;BME280;15041;45.334;5.622;2022-07-10T03:56:42;99634.72;;;21.03;65.71
27623;BME280;15041;45.334;5.622;2022-07-10T03:59:27;99642.53;;;21.18;64.70
27623;BME280;15041;45.334;5.622;2022-07-10T04:01:53;99633.81;;;21.33;63.89
27623;BME280;15041;45.334;5.622;2022-07-10T04:04:20;99642.16;;;21.11;64.55
27623;BME280;15041;45.334;5.622;2022-07-10T04:06:47;99646.81;;;21.02;64.83
27623;BME280;15041;45.334;5.622;2022-07-10T04:09:15;99643.63;;;21.17;63.98
27623;BME280;15041;45.334;5.622;2022-07-10T04:11:42;99643.81;;;21.29;63.11
27623;BME280;15041;45.334;5.622;2022-07-10T04:14:09;99642.84;;;21.25;63.14
27623;BME280;15041;45.334;5.622;2022-07-10T04:16:36;99638.03;;;21.39;62.47
27623;BME280;15041;45.334;5.622;2022-07-10T04:19:02;99639.66;;;21.40;62.45
27623;BME280;15041;45.334;5.622;2022-07-10T04:21:29;99641.56;;;21.31;62.72
27623;BME280;15041;45.334;5.622;2022-07-10T04:23:56;99644.94;;;21.28;63.10
27623;BME280;15041;45.334;5.622;2022-07-10T04:26:24;99638.63;;;21.19;63.01
27623;BME280;15041;45.334;5.622;2022-07-10T04:28:51;99630.25;;;21.24;62.69
27623;BME280;15041;45.334;5.622;2022-07-10T04:31:18;99627.31;;;21.12;63.09
27623;BME280;15041;45.334;5.622;2022-07-10T04:33:44;99626.38;;;21.16;63.06
27623;BME280;15041;45.334;5.622;2022-07-10T04:36:11;99635.91;;;20.80;65.85
27623;BME280;15041;45.334;5.622;2022-07-10T04:38:38;99632.28;;;20.93;65.62
27623;BME280;15041;45.334;5.622;2022-07-10T04:41:05;99631.19;;;21.11;64.60
27623;BME280;15041;45.334;5.622;2022-07-10T04:43:33;99630.56;;;21.14;64.19
27623;BME280;15041;45.334;5.622;2022-07-10T04:46:00;99631.56;;;20.87;66.13
27623;BME280;15041;45.334;5.622;2022-07-10T04:48:27;99626.09;;;20.18;71.01
27623;BME280;15041;45.334;5.622;2022-07-10T04:50:54;99633.81;;;19.58;76.87
27623;BME280;15041;45.334;5.622;2022-07-10T04:53:20;99637.66;;;19.93;75.49
27623;BME280;15041;45.334;5.622;2022-07-10T04:55:47;99635.84;;;20.32;72.88
27623;BME280;15041;45.334;5.622;2022-07-10T04:58:14;99636.38;;;20.43;71.57
27623;BME280;15041;45.334;5.622;2022-07-10T05:00:42;99644.84;;;20.55;69.77
27623;BME280;15041;45.334;5.622;2022-07-10T05:03:09;99641.22;;;20.76;68.51
27623;BME280;15041;45.334;5.622;2022-07-10T05:05:36;99638.84;;;20.53;70.38
27623;BME280;15041;45.334;5.622;2022-07-10T05:08:03;99633.66;;;20.43;71.13
27623;BME280;15041;45.334;5.622;2022-07-10T05:10:30;99638.38;;;20.51;69.80
27623;BME280;15041;45.334;5.622;2022-07-10T05:12:57;99636.00;;;20.36;71.61
27623;BME280;15041;45.334;5.622;2022-07-10T05:15:23;99641.34;;;20.63;70.40
27623;BME280;15041;45.334;5.622;2022-07-10T05:17:52;99638.44;;;20.68;68.84
27623;BME280;15041;45.334;5.622;2022-07-10T05:20:19;99640.38;;;20.67;69.21
27623;BME280;15041;45.334;5.622;2022-07-10T05:22:46;99645.13;;;20.84;68.03
27623;BME280;15041;45.334;5.622;2022-07-10T05:25:12;99637.63;;;20.98;66.78
27623;BME280;15041;45.334;5.622;2022-07-10T05:27:39;99627.94;;;21.09;66.33
27623;BME280;15041;45.334;5.622;2022-07-10T05:30:07;99635.38;;;21.17;65.50
27623;BME280;15041;45.334;5.622;2022-07-10T05:32:34;99633.94;;;21.11;65.90
27623;BME280;15041;45.334;5.622;2022-07-10T05:35:02;99648.47;;;21.11;65.90
27623;BME280;15041;45.334;5.622;2022-07-10T05:37:29;99659.88;;;20.66;68.49
27623;BME280;15041;45.334;5.622;2022-07-10T05:39:55;99652.50;;;20.14;74.17
27623;BME280;15041;45.334;5.622;2022-07-10T05:42:22;99645.09;;;20.45;71.69
27623;BME280;15041;45.334;5.622;2022-07-10T05:44:49;99654.13;;;20.76;69.28
27623;BME280;15041;45.334;5.622;2022-07-10T05:47:16;99652.75;;;20.56;70.71
27623;BME280;15041;45.334;5.622;2022-07-10T05:49:43;99656.03;;;20.67;70.61
27623;BME280;15041;45.334;5.622;2022-07-10T05:52:11;99653.31;;;20.75;68.78
27623;BME280;15041;45.334;5.622;2022-07-10T05:54:38;99656.31;;;20.96;67.50
27623;BME280;15041;45.334;5.622;2022-07-10T05:57:05;99657.50;;;21.03;67.54
27623;BME280;15041;45.334;5.622;2022-07-10T05:59:33;99654.09;;;21.06;67.18
27623;BME280;15041;45.334;5.622;2022-07-10T06:02:00;99658.31;;;21.12;66.94
27623;BME280;15041;45.334;5.622;2022-07-10T06:04:27;99655.75;;;21.16;66.69
27623;BME280;15041;45.334;5.622;2022-07-10T06:06:53;99659.63;;;21.15;66.85
27623;BME280;15041;45.334;5.622;2022-07-10T06:09:21;99657.03;;;21.10;66.85
27623;BME280;15041;45.334;5.622;2022-07-10T06:11:48;99651.53;;;21.10;66.80
27623;BME280;15041;45.334;5.622;2022-07-10T06:14:15;99649.91;;;21.09;66.92
27623;BME280;15041;45.334;5.622;2022-07-10T06:16:42;99656.19;;;21.01;67.28
27623;BME280;15041;45.334;5.622;2022-07-10T06:19:08;99649.84;;;20.92;67.85
27623;BME280;15041;45.334;5.622;2022-07-10T06:21:35;99648.75;;;21.01;67.56
27623;BME280;15041;45.334;5.622;2022-07-10T06:24:02;99657.00;;;21.01;67.85
27623;BME280;15041;45.334;5.622;2022-07-10T06:26:30;99657.03;;;21.10;67.59
27623;BME280;15041;45.334;5.622;2022-07-10T06:28:57;99650.25;;;21.16;67.40
27623;BME280;15041;45.334;5.622;2022-07-10T06:31:24;99644.91;;;21.11;67.45
27623;BME280;15041;45.334;5.622;2022-07-10T06:33:51;99644.09;;;21.02;67.91
27623;BME280;15041;45.334;5.622;2022-07-10T06:36:18;99649.22;;;20.95;68.30
27623;BME280;15041;45.334;5.622;2022-07-10T06:38:44;99649.50;;;20.85;68.85
27623;BME280;15041;45.334;5.622;2022-07-10T06:41:11;99640.34;;;20.98;68.39
27623;BME280;15041;45.334;5.622;2022-07-10T06:43:39;99652.00;;;21.12;67.87
27623;BME280;15041;45.334;5.622;2022-07-10T06:46:06;99640.75;;;21.30;67.27
27623;BME280;15041;45.334;5.622;2022-07-10T06:48:33;99646.13;;;21.44;67.01
27623;BME280;15041;45.334;5.622;2022-07-10T06:51:01;99646.44;;;21.51;66.25
27623;BME280;15041;45.334;5.622;2022-07-10T06:53:28;99632.53;;;21.39;66.19
27623;BME280;15041;45.334;5.622;2022-07-10T06:55:55;99640.13;;;21.50;65.42
27623;BME280;15041;45.334;5.622;2022-07-10T06:58:22;99633.22;;;21.70;64.78
27623;BME280;15041;45.334;5.622;2022-07-10T07:00:50;99636.78;;;21.79;64.12
27623;BME280;15041;45.334;5.622;2022-07-10T07:03:16;99625.47;;;21.80;63.64
27623;BME280;15041;45.334;5.622;2022-07-10T07:05:43;99632.09;;;21.71;63.18
27623;BME280;15041;45.334;5.622;2022-07-10T07:08:10;99625.75;;;21.45;67.21
27623;BME280;15041;45.334;5.622;2022-07-10T07:10:38;99627.03;;;21.22;69.75
27623;BME280;15041;45.334;5.622;2022-07-10T07:13:05;99625.66;;;20.94;71.11
27623;BME280;15041;45.334;5.622;2022-07-10T07:15:34;99624.72;;;21.07;70.34
27623;BME280;15041;45.334;5.622;2022-07-10T07:18:06;99625.88;;;21.23;69.14
27623;BME280;15041;45.334;5.622;2022-07-10T07:20:38;99617.97;;;21.30;68.07
27623;BME280;15041;45.334;5.622;2022-07-10T07:23:23;99620.25;;;21.45;64.70
27623;BME280;15041;45.334;5.622;2022-07-10T07:25:50;99623.19;;;21.57;65.66
27623;BME280;15041;45.334;5.622;2022-07-10T07:28:17;99614.44;;;21.55;64.57
27623;BME280;15041;45.334;5.622;2022-07-10T07:30:45;99612.81;;;21.54;64.17
27623;BME280;15041;45.334;5.622;2022-07-10T07:33:13;99612.50;;;21.64;64.04
27623;BME280;15041;45.334;5.622;2022-07-10T07:35:40;99603.16;;;21.82;62.33
27623;BME280;15041;45.334;5.622;2022-07-10T07:38:08;99600.59;;;21.77;61.69
27623;BME280;15041;45.334;5.622;2022-07-10T07:40:35;99599.25;;;21.74;61.89
27623;BME280;15041;45.334;5.622;2022-07-10T07:43:02;99595.25;;;21.80;62.13
27623;BME280;15041;45.334;5.622;2022-07-10T07:45:29;99601.22;;;21.91;62.47
27623;BME280;15041;45.334;5.622;2022-07-10T07:47:57;99594.06;;;22.07;61.86
27623;BME280;15041;45.334;5.622;2022-07-10T07:50:27;99600.81;;;22.18;62.07
27623;BME280;15041;45.334;5.622;2022-07-10T07:52:55;99588.81;;;22.31;61.53
27623;BME280;15041;45.334;5.622;2022-07-10T07:55:22;99594.28;;;22.48;61.27
27623;BME280;15041;45.334;5.622;2022-07-10T07:57:51;99593.28;;;22.44;60.54
27623;BME280;15041;45.334;5.622;2022-07-10T08:00:19;99599.13;;;22.51;61.70
27623;BME280;15041;45.334;5.622;2022-07-10T08:02:48;99596.38;;;22.59;61.53
27623;BME280;15041;45.334;5.622;2022-07-10T08:05:15;99599.13;;;22.51;62.90
27623;BME280;15041;45.334;5.622;2022-07-10T08:07:45;99595.16;;;22.69;62.43
27623;BME280;15041;45.334;5.622;2022-07-10T08:10:13;99586.06;;;22.77;62.28
27623;BME280;15041;45.334;5.622;2022-07-10T08:12:40;99585.88;;;22.82;62.83
27623;BME280;15041;45.334;5.622;2022-07-10T08:15:09;99588.25;;;22.92;63.02
27623;BME280;15041;45.334;5.622;2022-07-10T08:17:36;99575.00;;;22.56;63.86
27623;BME280;15041;45.334;5.622;2022-07-10T08:20:04;99579.59;;;22.73;63.43
27623;BME280;15041;45.334;5.622;2022-07-10T08:22:31;99579.03;;;22.88;63.20
27623;BME280;15041;45.334;5.622;2022-07-10T08:25:00;99575.09;;;22.97;62.14
27623;BME280;15041;45.334;5.622;2022-07-10T08:27:27;99563.56;;;23.04;62.27
27623;BME280;15041;45.334;5.622;2022-07-10T08:29:54;99558.59;;;23.18;62.03
27623;BME280;15041;45.334;5.622;2022-07-10T08:32:21;99559.91;;;23.41;61.58
27623;BME280;15041;45.334;5.622;2022-07-10T08:34:47;99555.75;;;23.35;62.05
27623;BME280;15041;45.334;5.622;2022-07-10T08:37:14;99554.19;;;23.46;60.86
27623;BME280;15041;45.334;5.622;2022-07-10T08:39:41;99550.03;;;23.40;60.52
27623;BME280;15041;45.334;5.622;2022-07-10T08:42:10;99547.56;;;23.47;60.09
27623;BME280;15041;45.334;5.622;2022-07-10T08:44:37;99542.50;;;23.49;60.84
27623;BME280;15041;45.334;5.622;2022-07-10T08:47:04;99538.44;;;23.67;59.02
27623;BME280;15041;45.334;5.622;2022-07-10T08:49:31;99542.09;;;23.59;59.57
27623;BME280;15041;45.334;5.622;2022-07-10T08:52:03;99533.03;;;23.91;59.62
27623;BME280;15041;45.334;5.622;2022-07-10T08:54:32;99524.31;;;24.01;59.33
27623;BME280;15041;45.334;5.622;2022-07-10T08:57:00;99538.63;;;24.15;58.78
27623;BME280;15041;45.334;5.622;2022-07-10T08:59:29;99529.84;;;24.13;57.73
27623;BME280;15041;45.334;5.622;2022-07-10T09:01:56;99524.84;;;24.27;57.04
27623;BME280;15041;45.334;5.622;2022-07-10T09:04:25;99525.31;;;24.41;56.31
27623;BME280;15041;45.334;5.622;2022-07-10T09:06:53;99521.06;;;24.56;53.87
27623;BME280;15041;45.334;5.622;2022-07-10T09:09:21;99519.78;;;24.89;50.65
27623;BME280;15041;45.334;5.622;2022-07-10T09:11:55;99521.63;;;24.85;48.90
27623;BME280;15041;45.334;5.622;2022-07-10T09:14:23;99523.72;;;24.88;49.90
27623;BME280;15041;45.334;5.622;2022-07-10T09:16:54;99518.97;;;25.01;49.30
27623;BME280;15041;45.334;5.622;2022-07-10T09:19:23;99514.91;;;25.10;49.14
27623;BME280;15041;45.334;5.622;2022-07-10T09:21:52;99533.53;;;25.25;48.68
27623;BME280;15041;45.334;5.622;2022-07-10T09:24:19;99521.78;;;25.28;47.48
27623;BME280;15041;45.334;5.622;2022-07-10T09:26:58;99522.00;;;25.35;47.55
27623;BME280;15041;45.334;5.622;2022-07-10T09:29:25;99520.50;;;25.38;47.96
27623;BME280;15041;45.334;5.622;2022-07-10T09:31:55;99517.63;;;25.46;46.56
27623;BME280;15041;45.334;5.622;2022-07-10T09:34:35;99517.34;;;25.51;46.82
27623;BME280;15041;45.334;5.622;2022-07-10T09:37:23;99515.03;;;25.53;46.56
27623;BME280;15041;45.334;5.622;2022-07-10T09:39:54;99518.47;;;25.62;46.81
27623;BME280;15041;45.334;5.622;2022-07-10T09:42:35;99512.69;;;25.67;47.46
27623;BME280;15041;45.334;5.622;2022-07-10T09:45:18;99517.69;;;25.77;47.12
27623;BME280;15041;45.334;5.622;2022-07-10T09:47:54;99512.16;;;25.77;46.67
27623;BME280;15041;45.334;5.622;2022-07-10T09:50:24;99519.03;;;25.83;47.31
27623;BME280;15041;45.334;5.622;2022-07-10T09:52:52;99516.94;;;25.92;45.62
27623;BME280;15041;45.334;5.622;2022-07-10T09:55:21;99508.06;;;25.99;46.14
27623;BME280;15041;45.334;5.622;2022-07-10T09:57:55;99523.31;;;26.08;45.63
27623;BME280;15041;45.334;5.622;2022-07-10T10:00:24;99513.19;;;26.00;45.87
27623;BME280;15041;45.334;5.622;2022-07-10T10:02:58;99498.88;;;26.10;45.89
27623;BME280;15041;45.334;5.622;2022-07-10T10:05:36;99502.25;;;26.19;46.95
27623;BME280;15041;45.334;5.622;2022-07-10T10:08:10;99498.94;;;26.29;45.93
27623;BME280;15041;45.334;5.622;2022-07-10T10:10:43;99498.31;;;26.20;46.46
27623;BME280;15041;45.334;5.622;2022-07-10T10:13:10;99495.03;;;26.30;47.48
27623;BME280;15041;45.334;5.622;2022-07-10T10:15:38;99505.19;;;26.42;47.75
27623;BME280;15041;45.334;5.622;2022-07-10T10:18:07;99504.56;;;26.48;45.34
27623;BME280;15041;45.334;5.622;2022-07-10T10:20:36;99498.31;;;26.51;44.27
27623;BME280;15041;45.334;5.622;2022-07-10T10:23:04;99503.88;;;26.51;44.88
27623;BME280;15041;45.334;5.622;2022-07-10T10:25:32;99497.59;;;26.54;46.64
27623;BME280;15041;45.334;5.622;2022-07-10T10:28:01;99501.44;;;26.50;45.16
27623;BME280;15041;45.334;5.622;2022-07-10T10:30:29;99497.09;;;26.64;46.15
27623;BME280;15041;45.334;5.622;2022-07-10T10:32:56;99498.84;;;26.72;46.28
27623;BME280;15041;45.334;5.622;2022-07-10T10:35:44;99495.06;;;26.80;45.03
27623;BME280;15041;45.334;5.622;2022-07-10T10:38:12;99496.53;;;26.74;46.42
27623;BME280;15041;45.334;5.622;2022-07-10T10:40:39;99483.03;;;26.73;46.82
27623;BME280;15041;45.334;5.622;2022-07-10T10:43:16;99485.63;;;26.81;46.10
27623;BME280;15041;45.334;5.622;2022-07-10T10:45:43;99487.94;;;26.79;46.10
27623;BME280;15041;45.334;5.622;2022-07-10T10:48:12;99493.63;;;26.86;45.81
27623;BME280;15041;45.334;5.622;2022-07-10T10:50:41;99480.22;;;26.88;46.51
27623;BME280;15041;45.334;5.622;2022-07-10T10:53:17;99472.78;;;26.92;47.04
27623;BME280;15041;45.334;5.622;2022-07-10T10:56:22;99478.78;;;26.94;46.85
27623;BME280;15041;45.334;5.622;2022-07-10T10:58:49;99480.91;;;27.01;46.89
27623;BME280;15041;45.334;5.622;2022-07-10T11:01:27;99476.59;;;27.03;46.58
27623;BME280;15041;45.334;5.622;2022-07-10T11:04:13;99475.00;;;27.02;46.48
27623;BME280;15041;45.334;5.622;2022-07-10T11:06:41;99463.09;;;27.02;46.05
27623;BME280;15041;45.334;5.622;2022-07-10T11:09:23;99469.31;;;26.95;45.69
27623;BME280;15041;45.334;5.622;2022-07-10T11:12:01;99473.38;;;27.01;46.26
27623;BME280;15041;45.334;5.622;2022-07-10T11:14:29;99476.03;;;27.13;45.75
27623;BME280;15041;45.334;5.622;2022-07-10T11:16:56;99460.09;;;27.10;45.55
27623;BME280;15041;45.334;5.622;2022-07-10T11:19:24;99457.06;;;27.15;45.36
27623;BME280;15041;45.334;5.622;2022-07-10T11:21:58;99458.56;;;27.28;45.27
27623;BME280;15041;45.334;5.622;2022-07-10T11:24:38;99447.16;;;27.33;44.82
27623;BME280;15041;45.334;5.622;2022-07-10T11:27:15;99447.16;;;27.33;45.01
27623;BME280;15041;45.334;5.622;2022-07-10T11:29:56;99439.88;;;27.25;44.92
27623;BME280;15041;45.334;5.622;2022-07-10T11:32:24;99442.19;;;27.42;44.56
27623;BME280;15041;45.334;5.622;2022-07-10T11:34:51;99435.22;;;27.29;44.16
27623;BME280;15041;45.334;5.622;2022-07-10T11:37:18;99441.91;;;27.47;45.03
27623;BME280;15041;45.334;5.622;2022-07-10T11:39:47;99431.56;;;27.44;42.74
27623;BME280;15041;45.334;5.622;2022-07-10T11:42:14;99438.09;;;27.55;43.82
27623;BME280;15041;45.334;5.622;2022-07-10T11:44:41;99435.81;;;27.61;44.06
27623;BME280;15041;45.334;5.622;2022-07-10T11:47:07;99436.63;;;27.61;43.77
27623;BME280;15041;45.334;5.622;2022-07-10T11:49:44;99428.75;;;27.63;44.50
27623;BME280;15041;45.334;5.622;2022-07-10T11:52:10;99436.16;;;27.78;43.23
27623;BME280;15041;45.334;5.622;2022-07-10T11:54:37;99434.84;;;27.72;42.60
27623;BME280;15041;45.334;5.622;2022-07-10T11:57:07;99425.94;;;27.82;43.08
27623;BME280;15041;45.334;5.622;2022-07-10T11:59:34;99426.38;;;27.84;43.18
27623;BME280;15041;45.334;5.622;2022-07-10T12:02:01;99420.38;;;27.82;43.79
27623;BME280;15041;45.334;5.622;2022-07-10T12:04:30;99425.34;;;27.92;43.25
27623;BME280;15041;45.334;5.622;2022-07-10T12:06:57;99415.78;;;27.90;43.65
27623;BME280;15041;45.334;5.622;2022-07-10T12:09:24;99405.47;;;27.90;43.31
27623;BME280;15041;45.334;5.622;2022-07-10T12:12:01;99405.53;;;27.94;43.19
27623;BME280;15041;45.334;5.622;2022-07-10T12:14:29;99409.59;;;28.00;43.68
27623;BME280;15041;45.334;5.622;2022-07-10T12:16:57;99407.31;;;28.05;43.00
27623;BME280;15041;45.334;5.622;2022-07-10T12:19:25;99411.28;;;28.04;41.71
27623;BME280;15041;45.334;5.622;2022-07-10T12:21:53;99413.59;;;28.02;41.91
27623;BME280;15041;45.334;5.622;2022-07-10T12:24:22;99409.03;;;28.13;41.83
27623;BME280;15041;45.334;5.622;2022-07-10T12:26:50;99411.38;;;28.11;41.98
27623;BME280;15041;45.334;5.622;2022-07-10T12:29:22;99414.59;;;28.13;42.54
27623;BME280;15041;45.334;5.622;2022-07-10T12:31:52;99403.28;;;28.25;42.60
27623;BME280;15041;45.334;5.622;2022-07-10T12:34:20;99405.28;;;28.28;42.56
27623;BME280;15041;45.334;5.622;2022-07-10T12:36:58;99403.06;;;28.37;41.92
27623;BME280;15041;45.334;5.622;2022-07-10T12:39:35;99411.00;;;28.39;40.90
27623;BME280;15041;45.334;5.622;2022-07-10T12:42:04;99400.38;;;28.41;41.45
27623;BME280;15041;45.334;5.622;2022-07-10T12:44:38;99400.09;;;28.49;42.11
27623;BME280;15041;45.334;5.622;2022-07-10T12:47:08;99400.34;;;28.67;40.75
27623;BME280;15041;45.334;5.622;2022-07-10T12:49:49;99411.31;;;28.56;40.94
27623;BME280;15041;45.334;5.622;2022-07-10T12:52:20;99403.94;;;28.67;40.55
27623;BME280;15041;45.334;5.622;2022-07-10T12:54:47;99399.78;;;28.54;40.81
27623;BME280;15041;45.334;5.622;2022-07-10T12:57:13;99402.66;;;28.61;41.89
27623;BME280;15041;45.334;5.622;2022-07-10T12:59:40;99386.09;;;28.68;42.21
27623;BME280;15041;45.334;5.622;2022-07-10T13:02:15;99395.69;;;28.74;41.80
27623;BME280;15041;45.334;5.622;2022-07-10T13:04:52;99382.94;;;28.70;41.65
27623;BME280;15041;45.334;5.622;2022-07-10T13:07:20;99395.75;;;28.78;41.79